Provo Municipal Airport
KPVU : now visible

Airfield :











YOU CAN JOIN US ON...

 
LOGIN :

Register | Disclaimer

   EN    FR    IT 

 









Legend :    VFR   Marginal VFR   IFR   Intensive IFR   Very Intensive IFR
Visi :
Ceiling :
>= 8 km
>= 3000ft
5 to 8 km
1000 to 3000 ft
1500m to 5 km
500 to 1000 ft
800 to 1500m
200 to 500 ft
< 800m
< 200 ft
Symbols :   Thunderstorms  Fog  Heavy snow  Heavy precipitations  Wind > 20 kt






- Airport Elevation : 4497 ft


KPVU - Provo Municipal

CURRENT METAR :
  • 171256Z 10004KT 10SM BKN180 12/M06 A2984 RMK AO2 SLP070 T01221061

EXPIRED METARs :
  • 171156Z AUTO 09006KT 10SM CLR 13/M08 A2986 RMK AO2 SLP068 T01281083 10156 20061 56017
  • 171056Z AUTO 12011KT 10SM CLR 15/M06 A2986 RMK AO2 SLP062 T01501061

TAF KPVU
Valid from the 17 at 12:00 until the 18 at 12:00 UTC


171120Z 1712/1812 14010KT P6SM SCT080 SCT150
FM172100 30012G20KT P6SM VCSH SCT040 BKN080
FM180300 32012KT P6SM SCT050 BKN070



MET'MAP, your aeronautical weather chart ! - Copyright ORBIFLY December 2007 - Disclaimer

ORBIFLY MET'MAP TEAM :

Programming & Development : Alexandra Zaïnal
Concept & Development : Baudouin d'Aumeries
Co-Development & Prog : Marc-Olivier Méhu
Technical & hardware support : Manuel Goepfert

Contact : metmap@orbifly.com




SOURCES & CREDITS :

   NOAA       Earth
Advisory